Data for 08/15/2009

Time Sea-Level Adjusted Pressure Absolute Pressure Temperature Relative Humidity Dew Point   
(mb) (inHg) (mb) (inHg) (C) (F) (%) (C) (F)
00:05 1019 30.09 849 25.07 9.6 49.3 87 7.5 45.5
00:10 1019 30.09 849 25.07 9.6 49.2 87 7.5 45.5
00:15 1019 30.09 849 25.07 9.6 49.2 86 7.4 45.4
00:20 1019 30.09 849 25.07 9.6 49.2 85 7.2 45
00:25 1019 30.09 849 25.07 9.7 49.5 84 7.1 44.8
00:30 1019 30.09 849 25.07 9.8 49.6 84 7.2 45
00:35 1019 30.09 849 25.07 9.7 49.5 85 7.3 45.1
00:40 1019 30.09 849 25.07 9.6 49.2 85 7.2 44.9
00:45 1019 30.09 849 25.07 9.5 49.1 87 7.4 45.4
00:50 1019 30.09 849 25.07 9.4 48.9 87 7.4 45.4
00:55 1019 30.09 849 25.07 9.3 48.8 86 7.2 44.9
01:00 1019 30.09 849 25.07 9.3 48.7 87 7.2 45
01:05 1019 30.09 849 25.07 9.3 48.7 87 7.2 45
01:10 1019 30.09 849 25.07 9.3 48.7 87 7.2 45
01:15 1019 30.09 849 25.07 9.3 48.8 86 7.2 44.9
01:20 1019 30.09 849 25.07 9.3 48.8 88 7.4 45.2
01:25 1019 30.09 848 25.04 9.3 48.7 88 7.5 45.5
01:30 1019 30.09 848 25.04 9.2 48.6 88 7.4 45.2
01:35 1019 30.09 848 25.04 9.1 48.4 89 7.3 45.2
01:40 1019 30.09 848 25.04 9.1 48.4 88 7.2 44.9
01:45 1019 30.09 848 25.04 9.1 48.3 88 7.2 45
01:50 1019 30.09 848 25.04 9 48.3 88 7.1 44.8
01:55 1019 30.09 848 25.04 9 48.3 87 7.1 44.7
02:00 1019 30.09 848 25.04 9.1 48.3 86 6.8 44.2
02:05 1019 30.09 848 25.04 9 48.2 86 6.9 44.4
02:10 1019 30.09 848 25.04 9 48.1 86 6.7 44.1
02:15 1019 30.09 848 25.04 9.1 48.4 88 7.2 45
02:20 1019 30.09 848 25.04 9.2 48.6 90 7.6 45.7
02:25 1019 30.09 848 25.04 9.1 48.5 88 7.2 45
02:30 1019 30.09 848 25.04 9.3 48.8 86 7.1 44.8
02:35 1019 30.09 848 25.04 9.4 49 88 7.6 45.6
02:40 1019 30.09 848 25.04 9.4 49 88 7.6 45.7
02:45 1019 30.09 848 25.04 9.4 48.9 88 7.4 45.4
02:50 1019 30.09 848 25.04 9.4 48.9 89 7.6 45.7
02:55 1019 30.09 848 25.04 9.4 48.9 88 7.5 45.4
03:00 1019 30.09 848 25.04 9.5 49 86 7.3 45.1
03:05 1019 30.09 848 25.04 9.4 49 88 7.5 45.6
03:10 1019 30.09 848 25.04 9.4 48.9 89 7.7 45.8
03:15 1019 30.09 848 25.04 9.4 48.9 90 7.9 46.2
03:20 1019 30.09 848 25.04 9.3 48.7 91 7.8 46.1
03:25 1019 30.09 848 25.04 9.2 48.6 91 7.9 46.1
03:30 1019 30.09 848 25.04 9.2 48.6 91 7.8 46
03:35 1019 30.09 848 25.04 9.2 48.6 89 7.5 45.6
03:40 1019 30.09 848 25.04 9.2 48.6 90 7.7 45.9
03:45 1019 30.09 848 25.04 9.2 48.5 91 7.7 45.9
03:50 1019 30.09 848 25.04 9 48.1 89 7.3 45.1
03:55 1019 30.09 848 25.04 8.7 47.6 87 6.6 43.8
04:00 1019 30.09 848 25.04 8.3 46.9 87 6.3 43.4
04:05 1019 30.09 848 25.04 8.1 46.6 87 6 42.8
04:10 1019 30.09 848 25.04 7.9 46.2 86 5.7 42.3
04:15 1019 30.09 848 25.04 7.9 46.1 85 5.5 41.8
04:20 1019 30.09 848 25.04 7.9 46.2 85 5.5 41.9
04:25 1019 30.09 848 25.04 8 46.4 85 5.7 42.2
04:30 1019 30.09 848 25.04 8 46.4 83 5.3 41.5
04:35 1019 30.09 848 25.04 8 46.5 80 4.8 40.7
04:40 1019 30.09 848 25.04 8 46.3 81 4.9 40.7
04:45 1019 30.09 848 25.04 7.9 46.3 81 4.9 40.8
04:50 1019 30.09 848 25.04 7.9 46.3 81 4.8 40.7
04:55 1019 30.09 848 25.04 7.9 46.3 80 4.8 40.6
05:00 1019 30.09 848 25.04 8 46.3 80 4.7 40.5
05:05 1019 30.09 848 25.04 7.9 46.2 81 4.9 40.8
05:10 1019 30.09 848 25.04 7.9 46.2 80 4.7 40.5
05:15 1019 30.09 848 25.04 7.8 46.1 80 4.6 40.4
05:20 1019 30.09 848 25.04 7.8 46.1 81 4.7 40.5
05:25 1019 30.09 848 25.04 7.9 46.2 80 4.7 40.4
05:30 1019 30.09 848 25.04 8 46.3 79 4.5 40.1
05:35 1019 30.09 848 25.04 8.1 46.5 77 4.3 39.8
05:40 1019 30.09 848 25.04 8.1 46.5 78 4.5 40.1
05:45 1019 30.09 848 25.04 8.1 46.6 76 4.2 39.5
05:50 1019 30.09 848 25.04 8.2 46.7 78 4.5 40.2
05:55 1019 30.09 848 25.04 8.1 46.7 77 4.4 39.8
06:00 1019 30.09 848 25.04 8 46.5 81 4.9 40.9
06:05 1019 30.09 848 25.04 7.9 46.1 80 4.7 40.5
06:10 1019 30.09 848 25.04 7.7 45.9 80 4.5 40.2
06:15 1019 30.09 848 25.04 7.7 45.8 79 4.3 39.8
06:20 1019 30.09 848 25.04 7.7 45.8 76 3.8 38.9
06:25 1019 30.09 848 25.04 7.7 45.9 78 4.2 39.5
06:30 1019 30.09 848 25.04 7.6 45.6 79 4.2 39.5
06:35 1019 30.09 848 25.04 7.5 45.5 78 4 39.2
06:40 1019 30.09 848 25.04 7.6 45.7 77 3.8 38.8
06:45 1019 30.09 848 25.04 7.8 46 77 4 39.2
06:50 1019 30.09 848 25.04 7.8 46 78 4.1 39.4
06:55 1019 30.09 848 25.04 7.9 46.3 77 4.2 39.6
07:00 1019 30.09 849 25.07 8 46.4 77 4.2 39.6
07:05 1019 30.09 848 25.04 8 46.5 78 4.5 40.1
07:10 1019 30.09 848 25.04 8.3 46.9 76 4.3 39.7
07:15 1019 30.09 848 25.04 8.7 47.7 75 4.5 40.1
07:20 1019 30.09 848 25.04 9.2 48.5 76 5.1 41.2
07:25 1019 30.09 848 25.04 9.3 48.8 71 4.4 39.9
07:30 1019 30.09 848 25.04 9.6 49.3 71 4.6 40.3
07:35 1019 30.09 848 25.04 9.3 48.8 72 4.6 40.3
07:40 1019 30.09 848 25.04 9.3 48.8 73 4.8 40.6
07:45 1019 30.09 848 25.04 9.1 48.4 73 4.6 40.3
07:50 1019 30.09 848 25.04 9.4 48.9 71 4.5 40
07:55 1019 30.09 848 25.04 9.8 49.7 67 4 39.2
08:00 1019 30.09 848 25.04 9.7 49.4 66 3.7 38.7
08:05 1019 30.09 848 25.04 9.8 49.6 68 4.1 39.5
08:10 1019 30.09 848 25.04 9.5 49.2 67 3.7 38.7
08:15 1019 30.09 848 25.04 9.9 49.8 66 3.8 38.8
08:20 1019 30.09 848 25.04 10.6 51.2 64 4.1 39.4
08:25 1019 30.09 848 25.04 10.8 51.5 62 3.9 39.1
08:30 1019 30.09 848 25.04 10.4 50.6 63 3.6 38.4
08:35 1019 30.09 848 25.04 9.9 49.7 66 3.8 38.8
08:40 1019 30.09 848 25.04 9.7 49.5 64 3.3 38
08:45 1019 30.09 848 25.04 9.9 49.9 64 3.5 38.3
08:50 1019 30.09 848 25.04 10.4 50.8 64 3.9 39.1
08:55 1019 30.09 848 25.04 11 51.9 61 3.9 39
09:00 1019 30.09 848 25.04 11.5 52.8 58 3.6 38.4
09:05 1019 30.09 848 25.04 11.3 52.4 59 3.6 38.5
09:10 1019 30.09 848 25.04 11.8 53.2 55 3.2 37.7
09:15 1019 30.09 848 25.04 12.1 53.8 56 3.5 38.4
09:20 1019 30.09 848 25.04 12.5 54.5 54 3.6 38.6
09:25 1019 30.09 848 25.04 12.5 54.6 54 3.6 38.4
09:30 1019 30.09 848 25.04 12.8 55.1 54 3.8 38.9
09:35 1019 30.09 848 25.04 12.8 55.1 53 3.5 38.3
09:40 1019 30.09 848 25.04 13.3 56 49 3 37.5
09:45 1019 30.09 848 25.04 13.1 55.6 49 2.8 37
09:50 1019 30.09 848 25.04 12.8 55 49 2.3 36.1
09:55 1019 30.09 848 25.04 12.5 54.4 50 2.4 36.3
10:00 1019 30.09 848 25.04 12.3 54.1 51 2.4 36.4
10:05 1019 30.09 848 25.04 12.2 54 51 2.3 36.2
10:10 1019 30.09 848 25.04 12 53.7 51 2.3 36.2
10:15 1019 30.09 848 25.04 11.9 53.5 50 1.8 35.3
10:20 1019 30.09 848 25.04 12.7 54.8 49 2.2 35.9
10:25 1019 30.09 848 25.04 13.4 56.2 49 3 37.5
10:30 1019 30.09 848 25.04 13.7 56.6 47 2.7 36.8
10:35 1019 30.09 848 25.04 14.1 57.3 49 3.5 38.3
10:40 1019 30.09 848 25.04 13.3 55.9 49 2.8 37
10:45 1019 30.09 848 25.04 12.3 54.1 49 2.1 35.7
10:50 1019 30.09 848 25.04 13.1 55.6 47 2.1 35.7
10:55 1019 30.09 848 25.04 13.3 56 46 2.1 35.7
11:00 1019 30.09 848 25.04 13.5 56.3 46 2.1 35.7
11:05 1019 30.09 848 25.04 13.8 56.8 46 2.5 36.6
11:10 1019 30.09 848 25.04 13.4 56.1 47 2.4 36.3
11:15 1019 30.09 848 25.04 14.1 57.3 45 2.3 36.2
11:20 1019 30.09 848 25.04 14.3 57.7 46 2.9 37.3
11:25 1019 30.09 848 25.04 14 57.2 47 3 37.3
11:30 1019 30.09 848 25.04 14.5 58.2 45 2.9 37.3
11:35 1019 30.09 848 25.04 13.4 56.1 47 2.4 36.2
11:40 1019 30.09 848 25.04 14.1 57.3 43 1.8 35.3
11:45 1019 30.09 848 25.04 14.5 58.2 43 2.2 36
11:50 1019 30.09 848 25.04 14.5 58.1 40 1.3 34.3
11:55 1019 30.09 848 25.04 14.6 58.3 42 2 35.7
12:00 1019 30.09 848 25.04 14.3 57.8 45 2.6 36.8
12:05 1019 30.09 848 25.04 15 59 43 2.7 36.9
12:10 1019 30.09 848 25.04 15.5 59.9 40 2 35.6
12:15 1019 30.09 848 25.04 15.7 60.3 39 1.8 35.3
12:20 1019 30.09 848 25.04 16.1 60.9 37 1.6 34.9
12:25 1018 30.06 848 25.04 15.3 59.6 41 2.4 36.3
12:30 1018 30.06 848 25.04 15.3 59.5 42 2.6 36.6
12:35 1018 30.06 848 25.04 15.1 59.2 45 3.3 37.9
12:40 1018 30.06 848 25.04 15.3 59.6 42 2.5 36.5
12:45 1018 30.06 848 25.04 15.4 59.7 40 1.9 35.5
12:50 1018 30.06 847 25.01 15.6 60.1 40 2.3 36.1
12:55 1018 30.06 847 25.01 16.1 60.9 38 2 35.5
13:00 1018 30.06 847 25.01 15.8 60.5 38 1.6 34.9
13:05 1018 30.06 847 25.01 15.8 60.4 36 0.7 33.3
13:10 1018 30.06 847 25.01 16.6 61.9 37 1.9 35.5
13:15 1018 30.06 847 25.01 16.6 61.9 37 1.9 35.5
13:20 1018 30.06 847 25.01 16.7 62 34 0.8 33.5
13:25 1018 30.06 847 25.01 16.7 62 34 0.8 33.5
13:30 1018 30.06 847 25.01 16.6 61.9 37 2.1 35.7
13:35 1018 30.06 847 25.01 16.5 61.7 38 2.4 36.3
13:40 1018 30.06 847 25.01 16.5 61.7 37 1.8 35.3
13:45 1018 30.06 847 25.01 16.7 62.1 36 1.7 35
13:50 1018 30.06 847 25.01 17 62.5 38 2.6 36.6
13:55 1018 30.06 847 25.01 17.5 63.5 35 2.1 35.8
14:00 1018 30.06 847 25.01 17.3 63.2 33 1.1 34
14:05 1018 30.06 847 25.01 17.5 63.5 32 1 33.7
14:10 1018 30.06 847 25.01 17.6 63.7 34 1.8 35.2
14:15 1018 30.06 847 25.01 16.9 62.4 35 1.5 34.7
14:20 1018 30.06 847 25.01 16.2 61.2 37 1.7 35.1
14:25 1018 30.06 847 25.01 16 60.8 36 0.9 33.7
14:30 1018 30.06 847 25.01 16.6 61.9 36 1.7 35
14:35 1018 30.06 847 25.01 17 62.5 34 1 33.7
14:40 1018 30.06 847 25.01 16.6 61.8 34 0.9 33.6
14:45 1018 30.06 847 25.01 16.3 61.3 34 0.7 33.2
14:50 1018 30.06 847 25.01 16.4 61.6 35 1.1 34
14:55 1018 30.06 847 25.01 16.7 62.1 34 0.8 33.5
15:00 1018 30.06 847 25.01 16.8 62.3 35 1.5 34.7
15:05 1018 30.06 847 25.01 16.7 62.1 34 0.7 33.3
15:10 1018 30.06 847 25.01 16.6 61.9 34 0.9 33.6
15:15 1018 30.06 847 25.01 16.4 61.5 32 -0.1 31.8
15:20 1017 30.03 847 25.01 17 62.5 30 -0.6 31
15:25 1017 30.03 847 25.01 17.5 63.5 30 -0.2 31.7
15:30 1017 30.03 847 25.01 17.1 62.9 31 0 32.1
15:35 1018 30.06 847 25.01 16.9 62.5 31 -0.2 31.7
15:40 1018 30.06 847 25.01 16.8 62.3 31 -0.2 31.6
15:45 1018 30.06 847 25.01 16.7 62 33 0.3 32.6
15:50 1018 30.06 847 25.01 16.7 62.1 30 -0.7 30.7
15:55 1018 30.06 847 25.01 17.3 63.1 30 -0.2 31.6
16:00 1018 30.06 847 25.01 17 62.7 30 -0.5 31.1
16:05 1018 30.06 847 25.01 16.6 61.8 31 -0.3 31.4
16:10 1017 30.03 847 25.01 16.9 62.4 32 0.1 32.2
16:15 1017 30.03 847 25.01 16.6 61.8 32 -0 31.9
16:20 1018 30.06 847 25.01 16.5 61.6 39 2.4 36.4
16:25 1018 30.06 847 25.01 15.5 60 46 4.2 39.6
16:30 1018 30.06 847 25.01 14.9 58.8 46 3.4 38.1
16:35 1018 30.06 847 25.01 15.1 59.3 40 1.6 34.9
16:40 1018 30.06 847 25.01 14.9 58.8 41 2 35.6
16:45 1018 30.06 847 25.01 14.8 58.6 41 1.8 35.2
16:50 1018 30.06 847 25.01 14.5 58 43 2.1 35.8
16:55 1018 30.06 847 25.01 14.4 57.9 43 1.9 35.5
17:00 1018 30.06 847 25.01 14.4 57.9 43 1.9 35.4
17:05 1018 30.06 848 25.04 14.5 58.2 42 1.9 35.5
17:10 1018 30.06 848 25.04 14.6 58.2 41 1.5 34.7
17:15 1018 30.06 848 25.04 14.6 58.2 42 1.8 35.2
17:20 1018 30.06 848 25.04 14.7 58.4 42 2 35.5
17:25 1018 30.06 848 25.04 15 59 42 2.1 35.8
17:30 1018 30.06 848 25.04 15 59 39 1.4 34.6
17:35 1018 30.06 848 25.04 15.1 59.1 41 2 35.6
17:40 1018 30.06 848 25.04 15.1 59.2 43 2.6 36.7
17:45 1018 30.06 848 25.04 15.3 59.6 42 2.6 36.7
17:50 1018 30.06 848 25.04 15.4 59.6 41 2.4 36.3
17:55 1018 30.06 848 25.04 15.2 59.4 43 2.7 36.8
18:00 1018 30.06 848 25.04 15.4 59.6 44 3.2 37.7
18:05 1018 30.06 848 25.04 14.5 58.2 44 2.5 36.5
18:10 1018 30.06 848 25.04 14.3 57.8 44 2.2 35.9
18:15 1018 30.06 848 25.04 14.7 58.4 42 2 35.6
18:20 1018 30.06 848 25.04 15.3 59.5 42 2.5 36.5
18:25 1018 30.06 848 25.04 15.6 60.1 38 1.5 34.7
18:30 1018 30.06 848 25.04 15.8 60.4 38 1.5 34.7
18:35 1018 30.06 848 25.04 15.6 60.2 40 2.1 35.7
18:40 1018 30.06 847 25.01 15.5 59.9 38 1.4 34.4
18:45 1018 30.06 847 25.01 15.4 59.7 37 1 33.8
18:50 1018 30.06 847 25.01 15.4 59.7 39 1.5 34.7
18:55 1018 30.06 847 25.01 15 58.9 39 1.3 34.3
19:00 1018 30.06 848 25.04 14.9 58.9 39 1.3 34.3
19:05 1018 30.06 848 25.04 15 58.9 40 1.7 35
19:10 1018 30.06 848 25.04 15 58.9 40 1.7 35.1
19:15 1019 30.09 848 25.04 15 58.9 39 1.1 34.1
19:20 1019 30.09 848 25.04 14.9 58.8 40 1.7 35
19:25 1019 30.09 848 25.04 14.7 58.4 41 1.6 35
19:30 1019 30.09 848 25.04 14.4 58 42 1.7 35
19:35 1019 30.09 848 25.04 14.2 57.5 45 2.3 36.2
19:40 1019 30.09 848 25.04 13.9 57.1 45 2.3 36.2
19:45 1019 30.09 848 25.04 13.9 56.9 47 2.8 37
19:50 1019 30.09 848 25.04 13.7 56.6 48 3 37.4
19:55 1019 30.09 848 25.04 13.5 56.3 48 2.8 37.1
20:00 1019 30.09 848 25.04 13.4 56.1 49 2.9 37.3
20:05 1019 30.09 849 25.07 13.2 55.8 52 3.6 38.6
20:10 1019 30.09 849 25.07 13 55.4 51 3.1 37.5
20:15 1020 30.12 849 25.07 12.8 55.1 51 3.1 37.5
20:20 1020 30.12 849 25.07 12.7 54.8 51 3 37.3
20:25 1020 30.12 849 25.07 12.4 54.4 53 3.2 37.8
20:30 1020 30.12 849 25.07 12.1 53.9 54 3.2 37.8
20:35 1020 30.12 849 25.07 11.9 53.5 55 3.4 38
20:40 1020 30.12 849 25.07 11.8 53.2 56 3.5 38.2
20:45 1020 30.12 849 25.07 11.7 53 58 3.8 38.9
20:50 1020 30.12 849 25.07 11.5 52.6 60 4 39.2
20:55 1020 30.12 849 25.07 11.3 52.4 62 4.2 39.6
21:00 1020 30.12 849 25.07 11.2 52.1 62 4.3 39.7
21:05 1020 30.12 849 25.07 10.7 51.3 66 4.6 40.4
21:10 1020 30.12 849 25.07 10.4 50.7 67 4.7 40.4
21:15 1020 30.12 849 25.07 10.2 50.3 68 4.6 40.2
21:20 1020 30.12 849 25.07 9.9 49.9 68 4.4 39.9
21:25 1020 30.12 849 25.07 10.1 50.2 65 3.9 39.1
21:30 1020 30.12 849 25.07 10.4 50.7 62 3.5 38.4
21:35 1020 30.12 849 25.07 10.6 51.1 61 3.5 38.3
21:40 1020 30.12 849 25.07 10.7 51.2 61 3.5 38.3
21:45 1020 30.12 849 25.07 10.7 51.2 61 3.6 38.5
21:50 1020 30.12 849 25.07 10.5 51 62 3.7 38.6
21:55 1020 30.12 849 25.07 10.5 50.9 62 3.6 38.5
22:00 1020 30.12 850 25.1 10.5 50.9 61 3.4 38.1
22:05 1020 30.12 850 25.1 10.5 50.8 62 3.5 38.2
22:10 1020 30.12 850 25.1 10.5 50.9 61 3.4 38.1
22:15 1020 30.12 850 25.1 10.6 51 59 2.9 37.1
22:20 1020 30.12 850 25.1 10.8 51.5 57 2.8 37.1
22:25 1020 30.12 850 25.1 10.9 51.7 59 3.3 37.9
22:30 1020 30.12 850 25.1 10.8 51.5 59 3.3 37.9
22:35 1020 30.12 850 25.1 10.7 51.3 59 3.1 37.5
22:40 1020 30.12 850 25.1 10.7 51.3 60 3.4 38.1
22:45 1020 30.12 850 25.1 10.7 51.3 60 3.3 38
22:50 1020 30.12 850 25.1 10.7 51.2 60 3.2 37.7
22:55 1020 30.12 850 25.1 10.7 51.3 60 3.3 37.9
23:00 1020 30.12 850 25.1 10.8 51.4 60 3.4 38.1
23:05 1020 30.12 850 25.1 10.7 51.3 59 3 37.5
23:10 1020 30.12 850 25.1 10.8 51.4 59 3 37.5
23:15 1020 30.12 850 25.1 10.7 51.2 59 3 37.4
23:20 1020 30.12 850 25.1 10.8 51.4 58 2.9 37.3
23:25 1020 30.12 850 25.1 10.8 51.4 58 3 37.4
23:30 1020 30.12 850 25.1 10.9 51.6 57 2.8 37.1
23:35 1021 30.15 850 25.1 10.8 51.5 58 2.9 37.2
23:40 1021 30.15 850 25.1 10.8 51.5 58 2.9 37.2
23:45 1021 30.15 850 25.1 10.6 51.1 59 3.1 37.6
23:50 1021 30.15 850 25.1 10.6 51 59 3 37.4
23:55 1021 30.15 850 25.1 10.7 51.3 58 2.9 37.2
24:00 1021 30.15 850 25.1 10.7 51.3 59 3.2 37.7